This is the latest recevied weather packets stored in our database for station/object OK2JV-13. If no packets are shown the sender has not sent any weather packets the latest 10 day(s).
| Time | Temp. | Humidity | Pressure | Rain* | Wind** | Luminosity | Snow |
|---|---|---|---|---|---|---|---|
| 1788198192 | 20° C | 51% | 1013.9 hPa | - | - | - | - |
| 1788197587 | 20.56° C | 51% | 1014 hPa | - | - | - | - |
| 1788196982 | 20.56° C | 50% | 1014.2 hPa | - | - | - | - |
| 1788196378 | 21.11° C | 50% | 1014 hPa | - | - | - | - |
| 1788195774 | 21.11° C | 50% | 1014 hPa | - | - | - | - |
| 1788195171 | 21.67° C | 49% | 1013.9 hPa | - | - | - | - |
| 1788194564 | 21.67° C | 50% | 1013.9 hPa | - | - | - | - |
| 1788193958 | 22.22° C | 49% | 1014.2 hPa | - | - | - | - |
| 1788193354 | 22.78° C | 44% | 1013.9 hPa | - | - | - | - |
| 1788192751 | 22.78° C | 45% | 1014 hPa | - | - | - | - |
| 1788192147 | 22.78° C | 49% | 1013.9 hPa | - | - | - | - |
| 1788191543 | 22.22° C | 52% | 1013.9 hPa | - | - | - | - |
| 1788190939 | 22.22° C | 53% | 1013.9 hPa | - | - | - | - |
| 1788190335 | 22.78° C | 51% | 1014.1 hPa | - | - | - | - |
| 1788189731 | 22.78° C | 50% | 1013.9 hPa | - | - | - | - |
| 1788189127 | 22.78° C | 50% | 1013.9 hPa | - | - | - | - |
| 1788188523 | 22.78° C | 51% | 1014.1 hPa | - | - | - | - |
| 1788187918 | 22.78° C | 51% | 1014.2 hPa | - | - | - | - |
| 1788187314 | 23.33° C | 51% | 1014.1 hPa | - | - | - | - |
| 1788186710 | 23.33° C | 51% | 1014.2 hPa | - | - | - | - |
| 1788186105 | 23.89° C | 51% | 1014.1 hPa | - | - | - | - |
| 1788185500 | 23.89° C | 51% | 1014 hPa | - | - | - | - |
| 1788184897 | 24.44° C | 50% | 1014.3 hPa | - | - | - | - |
| 1788184293 | 24.44° C | 50% | 1014.2 hPa | - | - | - | - |
| 1788183689 | 24.44° C | 48% | 1014.1 hPa | - | - | - | - |
* Rain since midnight (hover to see other rain measurements)
** Current wind speed in m/s (hover to see current wind gust speed)